sensor_id;sensor_type;location;lat;lon;timestamp;temperature;humidity
20690;DHT22;10504;48.762;8.996;2024-01-07T00:01:46;4.70;99.90
20690;DHT22;10504;48.762;8.996;2024-01-07T00:04:12;4.70;99.90
20690;DHT22;10504;48.762;8.996;2024-01-07T00:06:39;4.70;99.90
20690;DHT22;10504;48.762;8.996;2024-01-07T00:09:05;4.70;99.90
20690;DHT22;10504;48.762;8.996;2024-01-07T00:11:30;4.70;99.90
20690;DHT22;10504;48.762;8.996;2024-01-07T00:13:56;4.80;99.90
20690;DHT22;10504;48.762;8.996;2024-01-07T00:16:21;4.70;99.90
20690;DHT22;10504;48.762;8.996;2024-01-07T00:18:47;4.70;99.90
20690;DHT22;10504;48.762;8.996;2024-01-07T00:21:13;4.70;99.90
20690;DHT22;10504;48.762;8.996;2024-01-07T00:23:38;4.70;99.90
20690;DHT22;10504;48.762;8.996;2024-01-07T00:26:04;4.70;99.90
20690;DHT22;10504;48.762;8.996;2024-01-07T00:28:30;4.60;99.90
20690;DHT22;10504;48.762;8.996;2024-01-07T00:30:56;4.70;99.90
20690;DHT22;10504;48.762;8.996;2024-01-07T00:33:22;4.70;99.90
20690;DHT22;10504;48.762;8.996;2024-01-07T00:35:48;4.70;99.90
20690;DHT22;10504;48.762;8.996;2024-01-07T00:38:13;4.70;99.90
20690;DHT22;10504;48.762;8.996;2024-01-07T00:40:39;4.70;99.90
20690;DHT22;10504;48.762;8.996;2024-01-07T00:43:04;4.70;99.90
20690;DHT22;10504;48.762;8.996;2024-01-07T00:45:30;4.70;99.90
20690;DHT22;10504;48.762;8.996;2024-01-07T00:47:57;4.70;99.90
20690;DHT22;10504;48.762;8.996;2024-01-07T00:50:23;4.70;99.90
20690;DHT22;10504;48.762;8.996;2024-01-07T00:52:48;4.70;99.90
20690;DHT22;10504;48.762;8.996;2024-01-07T00:55:14;4.70;99.90
20690;DHT22;10504;48.762;8.996;2024-01-07T00:57:40;4.70;99.90
20690;DHT22;10504;48.762;8.996;2024-01-07T01:00:07;4.70;99.90
20690;DHT22;10504;48.762;8.996;2024-01-07T01:02:33;4.60;99.90
20690;DHT22;10504;48.762;8.996;2024-01-07T01:04:59;4.60;99.90
20690;DHT22;10504;48.762;8.996;2024-01-07T01:07:24;4.60;99.90
20690;DHT22;10504;48.762;8.996;2024-01-07T01:09:50;4.60;99.90
20690;DHT22;10504;48.762;8.996;2024-01-07T01:12:16;4.60;99.90
20690;DHT22;10504;48.762;8.996;2024-01-07T01:14:41;4.60;99.90
20690;DHT22;10504;48.762;8.996;2024-01-07T01:17:07;4.60;99.90
20690;DHT22;10504;48.762;8.996;2024-01-07T01:19:32;4.60;99.90
20690;DHT22;10504;48.762;8.996;2024-01-07T01:21:59;4.70;99.90
20690;DHT22;10504;48.762;8.996;2024-01-07T01:24:25;4.60;99.90
20690;DHT22;10504;48.762;8.996;2024-01-07T01:26:50;4.60;99.90
20690;DHT22;10504;48.762;8.996;2024-01-07T01:29:16;4.60;99.90
20690;DHT22;10504;48.762;8.996;2024-01-07T01:31:41;4.60;99.90
20690;DHT22;10504;48.762;8.996;2024-01-07T01:34:07;4.60;99.90
20690;DHT22;10504;48.762;8.996;2024-01-07T01:36:33;4.60;99.90
20690;DHT22;10504;48.762;8.996;2024-01-07T01:38:58;4.60;99.90
20690;DHT22;10504;48.762;8.996;2024-01-07T01:41:24;4.60;99.90
20690;DHT22;10504;48.762;8.996;2024-01-07T01:43:49;4.60;99.90
20690;DHT22;10504;48.762;8.996;2024-01-07T01:46:15;4.60;99.90
20690;DHT22;10504;48.762;8.996;2024-01-07T01:48:41;4.60;99.90
20690;DHT22;10504;48.762;8.996;2024-01-07T01:51:08;4.50;99.90
20690;DHT22;10504;48.762;8.996;2024-01-07T01:53:34;4.60;99.90
20690;DHT22;10504;48.762;8.996;2024-01-07T01:56:01;4.60;99.90
20690;DHT22;10504;48.762;8.996;2024-01-07T01:58:29;4.60;99.90
20690;DHT22;10504;48.762;8.996;2024-01-07T02:00:56;4.60;99.90
20690;DHT22;10504;48.762;8.996;2024-01-07T02:03:21;4.60;99.90
20690;DHT22;10504;48.762;8.996;2024-01-07T02:05:48;4.60;99.90
20690;DHT22;10504;48.762;8.996;2024-01-07T02:08:15;4.50;99.90
20690;DHT22;10504;48.762;8.996;2024-01-07T02:10:41;4.50;99.90
20690;DHT22;10504;48.762;8.996;2024-01-07T02:13:06;4.50;99.90
20690;DHT22;10504;48.762;8.996;2024-01-07T02:15:32;4.50;99.90
20690;DHT22;10504;48.762;8.996;2024-01-07T02:17:59;4.50;99.90
20690;DHT22;10504;48.762;8.996;2024-01-07T02:20:24;4.50;99.90
20690;DHT22;10504;48.762;8.996;2024-01-07T02:22:50;4.50;99.90
20690;DHT22;10504;48.762;8.996;2024-01-07T02:25:16;4.50;99.90
20690;DHT22;10504;48.762;8.996;2024-01-07T02:27:42;4.40;99.90
20690;DHT22;10504;48.762;8.996;2024-01-07T02:30:08;4.50;99.90
20690;DHT22;10504;48.762;8.996;2024-01-07T02:32:34;4.40;99.90
20690;DHT22;10504;48.762;8.996;2024-01-07T02:35:01;4.40;99.90
20690;DHT22;10504;48.762;8.996;2024-01-07T02:37:27;4.40;99.90
20690;DHT22;10504;48.762;8.996;2024-01-07T02:39:53;4.40;99.90
20690;DHT22;10504;48.762;8.996;2024-01-07T02:42:18;4.40;99.90
20690;DHT22;10504;48.762;8.996;2024-01-07T02:44:44;4.40;99.90
20690;DHT22;10504;48.762;8.996;2024-01-07T02:47:09;4.30;99.90
20690;DHT22;10504;48.762;8.996;2024-01-07T02:49:35;4.30;99.90
20690;DHT22;10504;48.762;8.996;2024-01-07T02:52:01;4.30;99.90
20690;DHT22;10504;48.762;8.996;2024-01-07T02:54:26;4.30;99.90
20690;DHT22;10504;48.762;8.996;2024-01-07T02:56:52;4.30;99.90
20690;DHT22;10504;48.762;8.996;2024-01-07T02:59:18;4.30;99.90
20690;DHT22;10504;48.762;8.996;2024-01-07T03:01:43;4.30;99.90
20690;DHT22;10504;48.762;8.996;2024-01-07T03:04:10;4.30;99.90
20690;DHT22;10504;48.762;8.996;2024-01-07T03:06:36;4.30;99.90
20690;DHT22;10504;48.762;8.996;2024-01-07T03:09:02;4.30;99.90
20690;DHT22;10504;48.762;8.996;2024-01-07T03:11:28;4.30;99.90
20690;DHT22;10504;48.762;8.996;2024-01-07T03:13:55;4.30;99.90
20690;DHT22;10504;48.762;8.996;2024-01-07T03:16:22;4.30;99.90
20690;DHT22;10504;48.762;8.996;2024-01-07T03:18:48;4.30;99.90
20690;DHT22;10504;48.762;8.996;2024-01-07T03:21:21;4.30;99.90
20690;DHT22;10504;48.762;8.996;2024-01-07T03:23:47;4.30;99.90
20690;DHT22;10504;48.762;8.996;2024-01-07T03:26:14;4.30;99.90
20690;DHT22;10504;48.762;8.996;2024-01-07T03:28:39;4.30;99.90
20690;DHT22;10504;48.762;8.996;2024-01-07T03:31:10;4.30;99.90
20690;DHT22;10504;48.762;8.996;2024-01-07T03:33:39;4.40;99.90
20690;DHT22;10504;48.762;8.996;2024-01-07T03:36:09;4.30;99.90
20690;DHT22;10504;48.762;8.996;2024-01-07T03:38:35;4.30;99.90
20690;DHT22;10504;48.762;8.996;2024-01-07T03:41:01;4.30;99.90
20690;DHT22;10504;48.762;8.996;2024-01-07T03:43:27;4.30;99.90
20690;DHT22;10504;48.762;8.996;2024-01-07T03:45:52;4.30;99.90
20690;DHT22;10504;48.762;8.996;2024-01-07T03:48:18;4.30;99.90
20690;DHT22;10504;48.762;8.996;2024-01-07T03:50:44;4.30;99.90
20690;DHT22;10504;48.762;8.996;2024-01-07T03:53:09;4.30;99.90
20690;DHT22;10504;48.762;8.996;2024-01-07T03:55:35;4.30;99.90
20690;DHT22;10504;48.762;8.996;2024-01-07T03:58:01;4.30;99.90
20690;DHT22;10504;48.762;8.996;2024-01-07T04:00:26;4.30;99.90
20690;DHT22;10504;48.762;8.996;2024-01-07T04:02:52;4.30;99.90
20690;DHT22;10504;48.762;8.996;2024-01-07T04:05:17;4.30;99.90
20690;DHT22;10504;48.762;8.996;2024-01-07T04:07:43;4.30;99.90
20690;DHT22;10504;48.762;8.996;2024-01-07T04:10:09;4.30;99.90
20690;DHT22;10504;48.762;8.996;2024-01-07T04:12:34;4.30;99.90
20690;DHT22;10504;48.762;8.996;2024-01-07T04:15:00;4.30;99.90
20690;DHT22;10504;48.762;8.996;2024-01-07T04:17:26;4.20;99.90
20690;DHT22;10504;48.762;8.996;2024-01-07T04:19:52;4.20;99.90
20690;DHT22;10504;48.762;8.996;2024-01-07T04:22:17;4.20;99.90
20690;DHT22;10504;48.762;8.996;2024-01-07T04:24:43;4.20;99.90
20690;DHT22;10504;48.762;8.996;2024-01-07T04:27:09;4.20;99.90
20690;DHT22;10504;48.762;8.996;2024-01-07T04:29:35;4.20;99.90
20690;DHT22;10504;48.762;8.996;2024-01-07T04:32:01;4.20;99.90
20690;DHT22;10504;48.762;8.996;2024-01-07T04:34:27;4.20;99.90
20690;DHT22;10504;48.762;8.996;2024-01-07T04:36:52;4.20;99.90
20690;DHT22;10504;48.762;8.996;2024-01-07T04:39:18;4.20;99.90
20690;DHT22;10504;48.762;8.996;2024-01-07T04:41:43;4.20;99.90
20690;DHT22;10504;48.762;8.996;2024-01-07T04:44:09;4.20;99.90
20690;DHT22;10504;48.762;8.996;2024-01-07T04:46:38;4.10;99.90
20690;DHT22;10504;48.762;8.996;2024-01-07T04:49:04;4.10;99.90
20690;DHT22;10504;48.762;8.996;2024-01-07T04:51:31;4.10;99.90
20690;DHT22;10504;48.762;8.996;2024-01-07T04:53:57;4.20;99.90
20690;DHT22;10504;48.762;8.996;2024-01-07T04:56:22;4.20;99.90
20690;DHT22;10504;48.762;8.996;2024-01-07T04:58:48;4.20;99.90
20690;DHT22;10504;48.762;8.996;2024-01-07T05:01:14;4.20;99.90
20690;DHT22;10504;48.762;8.996;2024-01-07T05:03:39;4.20;99.90
20690;DHT22;10504;48.762;8.996;2024-01-07T05:06:07;4.10;99.90
20690;DHT22;10504;48.762;8.996;2024-01-07T05:08:33;4.10;99.90
20690;DHT22;10504;48.762;8.996;2024-01-07T05:10:59;4.20;99.90
20690;DHT22;10504;48.762;8.996;2024-01-07T05:13:24;4.10;99.90
20690;DHT22;10504;48.762;8.996;2024-01-07T05:15:50;4.20;99.90
20690;DHT22;10504;48.762;8.996;2024-01-07T05:18:22;4.20;99.90
20690;DHT22;10504;48.762;8.996;2024-01-07T05:20:48;4.20;99.90
20690;DHT22;10504;48.762;8.996;2024-01-07T05:23:14;4.20;99.90
20690;DHT22;10504;48.762;8.996;2024-01-07T05:25:41;4.20;99.90
20690;DHT22;10504;48.762;8.996;2024-01-07T05:28:07;4.20;99.90
20690;DHT22;10504;48.762;8.996;2024-01-07T05:30:33;4.20;99.90
20690;DHT22;10504;48.762;8.996;2024-01-07T05:32:58;4.20;99.90
20690;DHT22;10504;48.762;8.996;2024-01-07T05:35:24;4.10;99.90
20690;DHT22;10504;48.762;8.996;2024-01-07T05:37:49;4.10;99.90
20690;DHT22;10504;48.762;8.996;2024-01-07T05:40:16;4.10;99.90
20690;DHT22;10504;48.762;8.996;2024-01-07T05:42:42;4.10;99.90
20690;DHT22;10504;48.762;8.996;2024-01-07T05:45:08;4.10;99.90
20690;DHT22;10504;48.762;8.996;2024-01-07T05:47:33;4.10;99.90
20690;DHT22;10504;48.762;8.996;2024-01-07T05:49:59;4.10;99.90
20690;DHT22;10504;48.762;8.996;2024-01-07T05:52:25;4.10;99.90
20690;DHT22;10504;48.762;8.996;2024-01-07T05:54:50;4.10;99.90
20690;DHT22;10504;48.762;8.996;2024-01-07T05:57:16;4.10;99.90
20690;DHT22;10504;48.762;8.996;2024-01-07T05:59:43;4.10;99.90
20690;DHT22;10504;48.762;8.996;2024-01-07T06:02:09;4.00;99.90
20690;DHT22;10504;48.762;8.996;2024-01-07T06:04:36;4.00;99.90
20690;DHT22;10504;48.762;8.996;2024-01-07T06:07:02;4.00;99.90
20690;DHT22;10504;48.762;8.996;2024-01-07T06:09:28;4.00;99.90
20690;DHT22;10504;48.762;8.996;2024-01-07T06:11:54;4.00;99.90
20690;DHT22;10504;48.762;8.996;2024-01-07T06:14:20;4.00;99.90
20690;DHT22;10504;48.762;8.996;2024-01-07T06:16:46;3.90;99.90
20690;DHT22;10504;48.762;8.996;2024-01-07T06:19:11;3.90;99.90
20690;DHT22;10504;48.762;8.996;2024-01-07T06:21:37;3.90;99.90
20690;DHT22;10504;48.762;8.996;2024-01-07T06:24:03;3.80;99.90
20690;DHT22;10504;48.762;8.996;2024-01-07T06:26:29;3.80;99.90
20690;DHT22;10504;48.762;8.996;2024-01-07T06:28:55;3.80;99.90
20690;DHT22;10504;48.762;8.996;2024-01-07T06:31:20;3.80;99.90
20690;DHT22;10504;48.762;8.996;2024-01-07T06:33:46;3.80;99.90
20690;DHT22;10504;48.762;8.996;2024-01-07T06:36:12;3.80;99.90
20690;DHT22;10504;48.762;8.996;2024-01-07T06:38:37;3.70;99.90
20690;DHT22;10504;48.762;8.996;2024-01-07T06:41:03;3.70;99.90
20690;DHT22;10504;48.762;8.996;2024-01-07T06:43:30;3.80;99.90
20690;DHT22;10504;48.762;8.996;2024-01-07T06:45:55;3.80;99.90
20690;DHT22;10504;48.762;8.996;2024-01-07T06:48:21;3.80;99.90
20690;DHT22;10504;48.762;8.996;2024-01-07T06:50:47;3.80;99.90
20690;DHT22;10504;48.762;8.996;2024-01-07T06:53:12;3.80;99.90
20690;DHT22;10504;48.762;8.996;2024-01-07T06:55:39;3.90;99.90
20690;DHT22;10504;48.762;8.996;2024-01-07T06:58:04;3.80;99.90
20690;DHT22;10504;48.762;8.996;2024-01-07T07:00:30;3.80;99.90
20690;DHT22;10504;48.762;8.996;2024-01-07T07:02:56;3.70;99.90
20690;DHT22;10504;48.762;8.996;2024-01-07T07:05:21;3.70;99.90
20690;DHT22;10504;48.762;8.996;2024-01-07T07:07:47;3.60;99.90
20690;DHT22;10504;48.762;8.996;2024-01-07T07:10:12;3.60;99.90
20690;DHT22;10504;48.762;8.996;2024-01-07T07:12:38;3.60;99.90
20690;DHT22;10504;48.762;8.996;2024-01-07T07:15:04;3.60;99.90
20690;DHT22;10504;48.762;8.996;2024-01-07T07:17:29;3.60;99.90
20690;DHT22;10504;48.762;8.996;2024-01-07T07:19:55;3.60;99.90
20690;DHT22;10504;48.762;8.996;2024-01-07T07:22:21;3.50;99.90
20690;DHT22;10504;48.762;8.996;2024-01-07T07:24:46;3.60;99.90
20690;DHT22;10504;48.762;8.996;2024-01-07T07:27:12;3.60;99.90
20690;DHT22;10504;48.762;8.996;2024-01-07T07:29:37;3.50;99.90
20690;DHT22;10504;48.762;8.996;2024-01-07T07:32:03;3.60;99.90
20690;DHT22;10504;48.762;8.996;2024-01-07T07:34:29;3.60;99.90
20690;DHT22;10504;48.762;8.996;2024-01-07T07:36:55;3.60;99.90
20690;DHT22;10504;48.762;8.996;2024-01-07T07:39:21;3.60;99.90
20690;DHT22;10504;48.762;8.996;2024-01-07T07:41:46;3.60;99.90
20690;DHT22;10504;48.762;8.996;2024-01-07T07:44:13;3.60;99.90
20690;DHT22;10504;48.762;8.996;2024-01-07T07:46:39;3.60;99.90
20690;DHT22;10504;48.762;8.996;2024-01-07T07:49:05;3.60;99.90
20690;DHT22;10504;48.762;8.996;2024-01-07T07:51:30;3.50;99.90
20690;DHT22;10504;48.762;8.996;2024-01-07T07:53:56;3.50;99.90
20690;DHT22;10504;48.762;8.996;2024-01-07T07:56:22;3.40;99.90
20690;DHT22;10504;48.762;8.996;2024-01-07T07:58:48;3.40;99.90
20690;DHT22;10504;48.762;8.996;2024-01-07T08:01:14;3.40;99.90
20690;DHT22;10504;48.762;8.996;2024-01-07T08:03:39;3.40;99.90
20690;DHT22;10504;48.762;8.996;2024-01-07T08:06:05;3.40;99.90
20690;DHT22;10504;48.762;8.996;2024-01-07T08:08:31;3.40;99.90
20690;DHT22;10504;48.762;8.996;2024-01-07T08:10:57;3.40;99.90
20690;DHT22;10504;48.762;8.996;2024-01-07T08:13:23;3.30;99.90
20690;DHT22;10504;48.762;8.996;2024-01-07T08:15:48;3.30;99.90
20690;DHT22;10504;48.762;8.996;2024-01-07T08:18:14;3.30;99.90
20690;DHT22;10504;48.762;8.996;2024-01-07T08:20:39;3.20;99.90
20690;DHT22;10504;48.762;8.996;2024-01-07T08:23:05;3.30;99.90
20690;DHT22;10504;48.762;8.996;2024-01-07T08:25:31;3.30;99.90
20690;DHT22;10504;48.762;8.996;2024-01-07T08:27:57;3.30;99.90
20690;DHT22;10504;48.762;8.996;2024-01-07T08:30:23;3.30;99.90
20690;DHT22;10504;48.762;8.996;2024-01-07T08:32:49;3.30;99.90
20690;DHT22;10504;48.762;8.996;2024-01-07T08:35:14;3.20;99.90
20690;DHT22;10504;48.762;8.996;2024-01-07T08:37:40;3.20;99.90
20690;DHT22;10504;48.762;8.996;2024-01-07T08:40:06;3.30;99.90
20690;DHT22;10504;48.762;8.996;2024-01-07T08:42:35;3.20;99.90
20690;DHT22;10504;48.762;8.996;2024-01-07T08:45:01;3.20;99.90
20690;DHT22;10504;48.762;8.996;2024-01-07T08:47:26;3.20;99.90
20690;DHT22;10504;48.762;8.996;2024-01-07T08:49:53;3.20;99.90
20690;DHT22;10504;48.762;8.996;2024-01-07T08:52:19;3.20;99.90
20690;DHT22;10504;48.762;8.996;2024-01-07T08:54:45;3.10;99.90
20690;DHT22;10504;48.762;8.996;2024-01-07T08:57:10;3.20;99.90
20690;DHT22;10504;48.762;8.996;2024-01-07T08:59:36;3.20;99.90
20690;DHT22;10504;48.762;8.996;2024-01-07T09:02:02;3.20;99.90
20690;DHT22;10504;48.762;8.996;2024-01-07T09:04:28;3.20;99.90
20690;DHT22;10504;48.762;8.996;2024-01-07T09:06:53;3.20;99.90
20690;DHT22;10504;48.762;8.996;2024-01-07T09:09:19;3.20;99.90
20690;DHT22;10504;48.762;8.996;2024-01-07T09:11:44;3.10;99.90
20690;DHT22;10504;48.762;8.996;2024-01-07T09:14:11;3.00;99.90
20690;DHT22;10504;48.762;8.996;2024-01-07T09:16:36;2.90;99.90
20690;DHT22;10504;48.762;8.996;2024-01-07T09:19:02;2.90;99.90
20690;DHT22;10504;48.762;8.996;2024-01-07T09:21:28;3.00;99.90
20690;DHT22;10504;48.762;8.996;2024-01-07T09:23:53;3.00;99.90
20690;DHT22;10504;48.762;8.996;2024-01-07T09:26:19;3.10;99.90
20690;DHT22;10504;48.762;8.996;2024-01-07T09:28:45;3.10;99.90
20690;DHT22;10504;48.762;8.996;2024-01-07T09:31:11;3.10;99.90
20690;DHT22;10504;48.762;8.996;2024-01-07T09:33:36;3.10;99.90
20690;DHT22;10504;48.762;8.996;2024-01-07T09:36:02;3.10;99.90
20690;DHT22;10504;48.762;8.996;2024-01-07T09:38:28;3.10;99.90
20690;DHT22;10504;48.762;8.996;2024-01-07T09:40:54;3.00;99.90
20690;DHT22;10504;48.762;8.996;2024-01-07T09:43:20;3.10;99.90
20690;DHT22;10504;48.762;8.996;2024-01-07T09:45:50;3.20;99.90
20690;DHT22;10504;48.762;8.996;2024-01-07T09:48:17;3.20;99.90
20690;DHT22;10504;48.762;8.996;2024-01-07T09:50:43;3.20;99.90
20690;DHT22;10504;48.762;8.996;2024-01-07T09:53:14;3.20;99.90
20690;DHT22;10504;48.762;8.996;2024-01-07T09:55:52;3.10;99.90
20690;DHT22;10504;48.762;8.996;2024-01-07T09:58:18;3.10;99.90
20690;DHT22;10504;48.762;8.996;2024-01-07T10:00:44;3.10;99.90
20690;DHT22;10504;48.762;8.996;2024-01-07T10:03:09;3.10;99.90
20690;DHT22;10504;48.762;8.996;2024-01-07T10:05:35;3.20;99.90
20690;DHT22;10504;48.762;8.996;2024-01-07T10:08:01;3.20;99.90
20690;DHT22;10504;48.762;8.996;2024-01-07T10:10:28;3.20;99.90
20690;DHT22;10504;48.762;8.996;2024-01-07T10:12:54;3.30;99.90
20690;DHT22;10504;48.762;8.996;2024-01-07T10:15:22;3.30;99.90
20690;DHT22;10504;48.762;8.996;2024-01-07T10:17:48;3.20;99.90
20690;DHT22;10504;48.762;8.996;2024-01-07T10:20:13;3.10;99.90
20690;DHT22;10504;48.762;8.996;2024-01-07T10:22:46;3.00;99.90
20690;DHT22;10504;48.762;8.996;2024-01-07T10:25:15;3.00;99.90
20690;DHT22;10504;48.762;8.996;2024-01-07T10:27:41;2.90;99.90
20690;DHT22;10504;48.762;8.996;2024-01-07T10:30:07;2.90;99.90
20690;DHT22;10504;48.762;8.996;2024-01-07T10:32:35;2.90;99.90
20690;DHT22;10504;48.762;8.996;2024-01-07T10:35:03;2.90;99.90
20690;DHT22;10504;48.762;8.996;2024-01-07T10:37:30;2.90;99.90
20690;DHT22;10504;48.762;8.996;2024-01-07T10:39:58;2.90;99.90
20690;DHT22;10504;48.762;8.996;2024-01-07T10:42:30;2.90;99.90
20690;DHT22;10504;48.762;8.996;2024-01-07T10:44:56;2.80;99.90
20690;DHT22;10504;48.762;8.996;2024-01-07T10:47:22;2.80;99.90
20690;DHT22;10504;48.762;8.996;2024-01-07T10:49:50;2.70;99.90
20690;DHT22;10504;48.762;8.996;2024-01-07T10:52:16;2.70;99.90
20690;DHT22;10504;48.762;8.996;2024-01-07T10:54:44;2.80;99.90
20690;DHT22;10504;48.762;8.996;2024-01-07T10:57:32;2.80;99.90
20690;DHT22;10504;48.762;8.996;2024-01-07T11:00:00;2.80;99.90
20690;DHT22;10504;48.762;8.996;2024-01-07T11:02:26;2.70;99.90
20690;DHT22;10504;48.762;8.996;2024-01-07T11:05:17;2.80;99.90
20690;DHT22;10504;48.762;8.996;2024-01-07T11:07:52;2.60;99.90
20690;DHT22;10504;48.762;8.996;2024-01-07T11:10:31;2.70;99.90
20690;DHT22;10504;48.762;8.996;2024-01-07T11:13:00;2.70;99.90
20690;DHT22;10504;48.762;8.996;2024-01-07T11:18:20;2.70;99.90
20690;DHT22;10504;48.762;8.996;2024-01-07T11:20:46;2.70;99.90
20690;DHT22;10504;48.762;8.996;2024-01-07T11:26:02;2.80;99.90
20690;DHT22;10504;48.762;8.996;2024-01-07T11:28:43;2.80;99.90
20690;DHT22;10504;48.762;8.996;2024-01-07T11:31:09;2.80;99.90
20690;DHT22;10504;48.762;8.996;2024-01-07T11:33:38;2.80;99.90
20690;DHT22;10504;48.762;8.996;2024-01-07T11:36:07;2.90;99.90
20690;DHT22;10504;48.762;8.996;2024-01-07T11:38:36;2.80;99.90
20690;DHT22;10504;48.762;8.996;2024-01-07T11:41:05;2.80;99.90
20690;DHT22;10504;48.762;8.996;2024-01-07T11:43:31;2.70;99.90
20690;DHT22;10504;48.762;8.996;2024-01-07T11:45:57;2.70;99.90
20690;DHT22;10504;48.762;8.996;2024-01-07T11:48:23;2.70;99.90
20690;DHT22;10504;48.762;8.996;2024-01-07T11:50:49;2.70;99.90
20690;DHT22;10504;48.762;8.996;2024-01-07T11:53:14;2.70;99.90
20690;DHT22;10504;48.762;8.996;2024-01-07T11:55:41;2.80;99.90
20690;DHT22;10504;48.762;8.996;2024-01-07T11:58:06;2.70;99.90
20690;DHT22;10504;48.762;8.996;2024-01-07T12:00:35;2.70;99.90
20690;DHT22;10504;48.762;8.996;2024-01-07T12:03:02;2.70;99.90
20690;DHT22;10504;48.762;8.996;2024-01-07T12:05:28;2.70;99.90
20690;DHT22;10504;48.762;8.996;2024-01-07T12:07:54;2.70;99.90
20690;DHT22;10504;48.762;8.996;2024-01-07T12:10:20;2.70;99.90
20690;DHT22;10504;48.762;8.996;2024-01-07T12:12:46;2.60;99.90
20690;DHT22;10504;48.762;8.996;2024-01-07T12:15:12;2.60;99.90
20690;DHT22;10504;48.762;8.996;2024-01-07T12:17:39;2.60;99.90
20690;DHT22;10504;48.762;8.996;2024-01-07T12:20:05;2.60;99.90
20690;DHT22;10504;48.762;8.996;2024-01-07T12:22:33;2.60;99.90
20690;DHT22;10504;48.762;8.996;2024-01-07T12:25:02;2.60;99.90
20690;DHT22;10504;48.762;8.996;2024-01-07T12:27:28;2.60;99.90
20690;DHT22;10504;48.762;8.996;2024-01-07T12:29:58;2.50;99.90
20690;DHT22;10504;48.762;8.996;2024-01-07T12:32:27;2.50;99.90
20690;DHT22;10504;48.762;8.996;2024-01-07T12:34:53;2.50;99.90
20690;DHT22;10504;48.762;8.996;2024-01-07T12:37:19;2.50;99.90
20690;DHT22;10504;48.762;8.996;2024-01-07T12:39:44;2.50;99.90
20690;DHT22;10504;48.762;8.996;2024-01-07T12:42:10;2.60;99.90
20690;DHT22;10504;48.762;8.996;2024-01-07T12:44:38;2.60;99.90
20690;DHT22;10504;48.762;8.996;2024-01-07T12:47:05;2.60;99.90
20690;DHT22;10504;48.762;8.996;2024-01-07T12:49:31;2.50;99.90
20690;DHT22;10504;48.762;8.996;2024-01-07T12:51:56;2.50;99.90
20690;DHT22;10504;48.762;8.996;2024-01-07T12:54:22;2.50;99.90
20690;DHT22;10504;48.762;8.996;2024-01-07T12:56:50;2.50;99.90
20690;DHT22;10504;48.762;8.996;2024-01-07T12:59:15;2.40;99.90
20690;DHT22;10504;48.762;8.996;2024-01-07T13:01:41;2.40;99.90
20690;DHT22;10504;48.762;8.996;2024-01-07T13:04:07;2.50;99.90
20690;DHT22;10504;48.762;8.996;2024-01-07T13:06:35;2.50;99.90
20690;DHT22;10504;48.762;8.996;2024-01-07T13:09:00;2.50;99.90
20690;DHT22;10504;48.762;8.996;2024-01-07T13:11:29;2.50;99.90
20690;DHT22;10504;48.762;8.996;2024-01-07T13:13:55;2.50;99.90
20690;DHT22;10504;48.762;8.996;2024-01-07T13:16:25;2.40;99.90
20690;DHT22;10504;48.762;8.996;2024-01-07T13:18:51;2.40;99.90
20690;DHT22;10504;48.762;8.996;2024-01-07T13:21:17;2.40;99.90
20690;DHT22;10504;48.762;8.996;2024-01-07T13:23:43;2.30;99.90
20690;DHT22;10504;48.762;8.996;2024-01-07T13:26:10;2.30;99.90
20690;DHT22;10504;48.762;8.996;2024-01-07T13:28:35;2.30;99.90
20690;DHT22;10504;48.762;8.996;2024-01-07T13:31:01;2.40;99.90
20690;DHT22;10504;48.762;8.996;2024-01-07T13:33:29;2.40;99.90
20690;DHT22;10504;48.762;8.996;2024-01-07T13:35:55;2.40;99.90
20690;DHT22;10504;48.762;8.996;2024-01-07T13:38:20;2.30;99.90
20690;DHT22;10504;48.762;8.996;2024-01-07T13:40:46;2.20;99.90
20690;DHT22;10504;48.762;8.996;2024-01-07T13:43:12;2.20;99.90
20690;DHT22;10504;48.762;8.996;2024-01-07T13:45:37;2.10;99.90
20690;DHT22;10504;48.762;8.996;2024-01-07T13:48:03;2.10;99.90
20690;DHT22;10504;48.762;8.996;2024-01-07T13:50:29;2.10;99.90
20690;DHT22;10504;48.762;8.996;2024-01-07T13:52:55;2.10;99.90
20690;DHT22;10504;48.762;8.996;2024-01-07T13:55:20;2.00;99.90
20690;DHT22;10504;48.762;8.996;2024-01-07T13:57:46;2.00;99.90
20690;DHT22;10504;48.762;8.996;2024-01-07T14:00:12;2.00;99.90
20690;DHT22;10504;48.762;8.996;2024-01-07T14:02:43;2.00;99.90
20690;DHT22;10504;48.762;8.996;2024-01-07T14:05:11;2.10;99.90
20690;DHT22;10504;48.762;8.996;2024-01-07T14:07:37;2.10;99.90
20690;DHT22;10504;48.762;8.996;2024-01-07T14:10:04;2.10;99.90
20690;DHT22;10504;48.762;8.996;2024-01-07T14:12:31;2.10;99.90
20690;DHT22;10504;48.762;8.996;2024-01-07T14:14:56;2.10;99.90
20690;DHT22;10504;48.762;8.996;2024-01-07T14:17:22;2.10;99.90
20690;DHT22;10504;48.762;8.996;2024-01-07T14:19:48;2.10;99.90
20690;DHT22;10504;48.762;8.996;2024-01-07T14:22:14;2.10;99.90
20690;DHT22;10504;48.762;8.996;2024-01-07T14:24:39;2.10;99.90
20690;DHT22;10504;48.762;8.996;2024-01-07T14:27:05;2.10;99.90
20690;DHT22;10504;48.762;8.996;2024-01-07T14:29:30;2.00;99.90
20690;DHT22;10504;48.762;8.996;2024-01-07T14:31:56;2.00;99.90
20690;DHT22;10504;48.762;8.996;2024-01-07T14:34:22;2.00;99.90
20690;DHT22;10504;48.762;8.996;2024-01-07T14:36:48;2.00;99.90
20690;DHT22;10504;48.762;8.996;2024-01-07T14:39:13;1.90;99.90
20690;DHT22;10504;48.762;8.996;2024-01-07T14:41:39;1.90;99.90
20690;DHT22;10504;48.762;8.996;2024-01-07T14:44:05;1.80;99.90
20690;DHT22;10504;48.762;8.996;2024-01-07T14:46:31;1.90;99.90
20690;DHT22;10504;48.762;8.996;2024-01-07T14:48:56;1.80;99.90
20690;DHT22;10504;48.762;8.996;2024-01-07T14:51:22;1.90;99.90
20690;DHT22;10504;48.762;8.996;2024-01-07T14:53:47;1.90;99.90
20690;DHT22;10504;48.762;8.996;2024-01-07T14:56:13;1.90;99.90
20690;DHT22;10504;48.762;8.996;2024-01-07T14:58:39;1.80;99.90
20690;DHT22;10504;48.762;8.996;2024-01-07T15:01:06;1.80;99.90
20690;DHT22;10504;48.762;8.996;2024-01-07T15:03:32;1.80;99.90
20690;DHT22;10504;48.762;8.996;2024-01-07T15:05:58;1.80;99.90
20690;DHT22;10504;48.762;8.996;2024-01-07T15:08:23;1.80;99.90
20690;DHT22;10504;48.762;8.996;2024-01-07T15:10:49;1.80;99.90
20690;DHT22;10504;48.762;8.996;2024-01-07T15:13:15;1.70;99.90
20690;DHT22;10504;48.762;8.996;2024-01-07T15:15:41;1.70;99.90
20690;DHT22;10504;48.762;8.996;2024-01-07T15:18:06;1.70;99.90
20690;DHT22;10504;48.762;8.996;2024-01-07T15:20:32;1.70;99.90
20690;DHT22;10504;48.762;8.996;2024-01-07T15:22:58;1.70;99.90
20690;DHT22;10504;48.762;8.996;2024-01-07T15:25:24;1.60;99.90
20690;DHT22;10504;48.762;8.996;2024-01-07T15:27:49;1.60;99.90
20690;DHT22;10504;48.762;8.996;2024-01-07T15:30:15;1.50;99.90
20690;DHT22;10504;48.762;8.996;2024-01-07T15:32:41;1.50;99.90
20690;DHT22;10504;48.762;8.996;2024-01-07T15:35:06;1.50;99.90
20690;DHT22;10504;48.762;8.996;2024-01-07T15:37:34;1.50;99.90
20690;DHT22;10504;48.762;8.996;2024-01-07T15:40:00;1.40;99.90
20690;DHT22;10504;48.762;8.996;2024-01-07T15:42:26;1.40;99.90
20690;DHT22;10504;48.762;8.996;2024-01-07T15:44:52;1.40;99.90